ads2publish.com alexa rank chart, ads2publish.com alexa rank daily changes

ads2publish.com alexa rank chart, ads2publish.com alexa rank daily changes

ads2publish.com
Actual rank:
317 466

RANK HISTORY

Date Rank Diff
2017/12/12 317 466 +11 049
2017/12/11 306 417 +6 991
2017/12/10 299 426 +7 622
2017/12/09 291 804 +3 816
2017/12/08 287 988 +1 107
2017/12/07 286 881 -2 920
2017/12/06 289 801 +3 246
2017/12/05 286 555 +4 735
2017/12/04 281 820 +7 128
2017/12/03 274 692 -2 540
2017/12/02 277 232 -11 319
2017/12/01 288 551 -11 519
2017/11/30 300 070 -6 127
2017/11/29 306 197 +7 832
2017/11/28 298 365 +1 774
2017/11/27 296 591 -499
2017/11/26 297 090 +7 240
2017/11/25 289 850 -110
2017/11/24 289 960 -7 082
2017/11/23 297 042 -234
2017/11/22 297 276 +10 341
2017/11/21 286 935 +4 345
2017/11/20 282 590 +3 076
2017/11/19 279 514 -3 159
2017/11/18 282 673 -9 062
2017/11/17 291 735 -10 711
2017/11/16 302 446 +2 848
2017/11/15 299 598 -5
2017/11/14 299 603 -2 852
2017/11/13 302 455 -1 831
2017/11/12 304 286 +2 204
2017/11/11 302 082 -1 960
2017/11/10 304 042 -4 086
2017/11/09 308 128 -3 529
2017/11/08 311 657 -2 609
2017/11/07 314 266 +7 555
2017/11/06 306 711 +1 064
2017/11/05 305 647 +1 493
2017/11/04 304 154 -1 134
2017/11/03 305 288 -5 982
2017/11/02 311 270 +1 517
2017/11/01 309 753 +3 913
2017/10/31 305 840 +5 044
2017/10/30 300 796 -9 160
2017/10/29 309 956 -721
2017/10/28 310 677 +1 915
2017/10/27 308 762 +13 489
2017/10/26 295 273 -6 923
2017/10/25 302 196 -5 534
2017/10/24 307 730 +5 829
2017/10/23 301 901 -1 538
2017/10/22 303 439 -6 737
2017/10/21 310 176 +5 195
2017/10/20 304 981 -1 627
2017/10/19 306 608 -6 891
2017/10/18 313 499 +11 213
2017/10/17 302 286 +3 927
2017/10/16 298 359 +2 283
2017/10/14 296 076 +4 048
2017/10/13 292 028

WIDGET FOR YOUR SITE

DOMAINS WITH THE NEAREST RANK

Domain Rank
kurtkinetic.com 317 461
hech.be 317 462
testmadina.com 317 463
arecontvision.com 317 464
rexstar.ru 317 465
ads2publish.com 317 466
urldimadima4download.blogspot.com 317 467
nameurbaby.com 317 468
laopinionsemanario.com.ar 317 469
unifil.br 317 470
diyaudio.pl 317 471

DOMAINS WITH THE NEAREST RANK BY TLD .com

Domain Rank
theflamingvegan.com 317 456
bowlbrunswick.com 317 458
kurtkinetic.com 317 461
testmadina.com 317 463
arecontvision.com 317 464
ads2publish.com 317 466
nameurbaby.com 317 468
collegedegrees.com 317 472
mindai.com 317 475
hotvoip.com 317 476
fatporntube.com 317 477